sensor_id;sensor_type;location;lat;lon;timestamp;P1;durP1;ratioP1;P2;durP2;ratioP2
5569;SDS011;2808;51.240;6.794;2023-06-22T00:02:21;5.63;;;3.10;;
5569;SDS011;2808;51.240;6.794;2023-06-22T00:04:50;6.20;;;3.10;;
5569;SDS011;2808;51.240;6.794;2023-06-22T00:07:18;6.60;;;3.20;;
5569;SDS011;2808;51.240;6.794;2023-06-22T00:09:45;11.83;;;3.20;;
5569;SDS011;2808;51.240;6.794;2023-06-22T00:12:13;8.97;;;3.17;;
5569;SDS011;2808;51.240;6.794;2023-06-22T00:14:40;6.90;;;3.83;;
5569;SDS011;2808;51.240;6.794;2023-06-22T00:17:07;6.30;;;3.20;;
5569;SDS011;2808;51.240;6.794;2023-06-22T00:19:35;5.57;;;3.10;;
5569;SDS011;2808;51.240;6.794;2023-06-22T00:22:07;7.30;;;3.07;;
5569;SDS011;2808;51.240;6.794;2023-06-22T00:24:34;6.30;;;3.10;;
5569;SDS011;2808;51.240;6.794;2023-06-22T00:27:01;10.00;;;3.10;;
5569;SDS011;2808;51.240;6.794;2023-06-22T00:29:30;6.97;;;3.10;;
5569;SDS011;2808;51.240;6.794;2023-06-22T00:32:00;9.77;;;3.93;;
5569;SDS011;2808;51.240;6.794;2023-06-22T00:34:28;5.83;;;2.80;;
5569;SDS011;2808;51.240;6.794;2023-06-22T00:36:56;6.63;;;2.90;;
5569;SDS011;2808;51.240;6.794;2023-06-22T00:39:26;11.90;;;3.03;;
5569;SDS011;2808;51.240;6.794;2023-06-22T00:41:53;7.90;;;3.50;;
5569;SDS011;2808;51.240;6.794;2023-06-22T00:44:21;6.23;;;3.20;;
5569;SDS011;2808;51.240;6.794;2023-06-22T00:46:48;7.90;;;3.30;;
5569;SDS011;2808;51.240;6.794;2023-06-22T00:49:16;7.70;;;3.20;;
5569;SDS011;2808;51.240;6.794;2023-06-22T00:51:43;6.27;;;3.13;;
5569;SDS011;2808;51.240;6.794;2023-06-22T00:54:12;11.63;;;3.67;;
5569;SDS011;2808;51.240;6.794;2023-06-22T00:56:42;12.40;;;3.57;;
5569;SDS011;2808;51.240;6.794;2023-06-22T00:59:10;10.43;;;4.00;;
5569;SDS011;2808;51.240;6.794;2023-06-22T01:01:38;9.30;;;3.60;;
5569;SDS011;2808;51.240;6.794;2023-06-22T01:04:06;6.33;;;3.33;;
5569;SDS011;2808;51.240;6.794;2023-06-22T01:06:35;6.10;;;3.43;;
5569;SDS011;2808;51.240;6.794;2023-06-22T01:09:12;6.60;;;3.80;;
5569;SDS011;2808;51.240;6.794;2023-06-22T01:11:45;8.80;;;3.43;;
5569;SDS011;2808;51.240;6.794;2023-06-22T01:14:20;8.50;;;3.60;;
5569;SDS011;2808;51.240;6.794;2023-06-22T01:16:50;10.30;;;3.50;;
5569;SDS011;2808;51.240;6.794;2023-06-22T01:19:34;7.63;;;3.60;;
5569;SDS011;2808;51.240;6.794;2023-06-22T01:22:06;8.53;;;3.50;;
5569;SDS011;2808;51.240;6.794;2023-06-22T01:24:41;9.57;;;4.37;;
5569;SDS011;2808;51.240;6.794;2023-06-22T01:27:20;7.83;;;4.00;;
5569;SDS011;2808;51.240;6.794;2023-06-22T01:29:59;7.40;;;4.00;;
5569;SDS011;2808;51.240;6.794;2023-06-22T01:32:29;10.43;;;4.17;;
5569;SDS011;2808;51.240;6.794;2023-06-22T01:35:00;9.13;;;4.33;;
5569;SDS011;2808;51.240;6.794;2023-06-22T01:37:29;8.53;;;3.90;;
5569;SDS011;2808;51.240;6.794;2023-06-22T01:39:59;8.43;;;4.40;;
5569;SDS011;2808;51.240;6.794;2023-06-22T01:42:29;9.03;;;4.10;;
5569;SDS011;2808;51.240;6.794;2023-06-22T01:44:58;8.50;;;4.17;;
5569;SDS011;2808;51.240;6.794;2023-06-22T01:47:27;12.37;;;4.53;;
5569;SDS011;2808;51.240;6.794;2023-06-22T01:49:55;10.90;;;4.77;;
5569;SDS011;2808;51.240;6.794;2023-06-22T01:52:23;8.10;;;4.60;;
5569;SDS011;2808;51.240;6.794;2023-06-22T01:54:50;14.43;;;5.43;;
5569;SDS011;2808;51.240;6.794;2023-06-22T01:57:18;9.00;;;4.70;;
5569;SDS011;2808;51.240;6.794;2023-06-22T01:59:48;8.70;;;4.10;;
5569;SDS011;2808;51.240;6.794;2023-06-22T02:02:20;8.50;;;4.80;;
5569;SDS011;2808;51.240;6.794;2023-06-22T02:04:54;7.83;;;4.10;;
5569;SDS011;2808;51.240;6.794;2023-06-22T02:07:26;9.47;;;5.00;;
5569;SDS011;2808;51.240;6.794;2023-06-22T02:09:59;7.57;;;4.40;;
5569;SDS011;2808;51.240;6.794;2023-06-22T02:12:28;9.10;;;4.90;;
5569;SDS011;2808;51.240;6.794;2023-06-22T02:14:57;10.43;;;5.40;;
5569;SDS011;2808;51.240;6.794;2023-06-22T02:17:27;10.03;;;5.20;;
5569;SDS011;2808;51.240;6.794;2023-06-22T02:19:58;16.30;;;6.17;;
5569;SDS011;2808;51.240;6.794;2023-06-22T02:22:27;10.43;;;5.50;;
5569;SDS011;2808;51.240;6.794;2023-06-22T02:24:54;9.77;;;5.70;;
5569;SDS011;2808;51.240;6.794;2023-06-22T02:27:23;13.30;;;6.40;;
5569;SDS011;2808;51.240;6.794;2023-06-22T02:29:51;13.40;;;6.23;;
5569;SDS011;2808;51.240;6.794;2023-06-22T02:32:18;11.63;;;5.87;;
5569;SDS011;2808;51.240;6.794;2023-06-22T02:34:47;14.13;;;6.47;;
5569;SDS011;2808;51.240;6.794;2023-06-22T02:37:14;15.07;;;6.20;;
5569;SDS011;2808;51.240;6.794;2023-06-22T02:39:42;16.13;;;5.80;;
5569;SDS011;2808;51.240;6.794;2023-06-22T02:42:10;13.50;;;6.07;;
5569;SDS011;2808;51.240;6.794;2023-06-22T02:44:37;16.30;;;6.57;;
5569;SDS011;2808;51.240;6.794;2023-06-22T02:47:06;12.20;;;6.60;;
5569;SDS011;2808;51.240;6.794;2023-06-22T02:49:33;10.30;;;5.70;;
5569;SDS011;2808;51.240;6.794;2023-06-22T02:52:03;9.80;;;5.80;;
5569;SDS011;2808;51.240;6.794;2023-06-22T02:54:30;12.87;;;5.93;;
5569;SDS011;2808;51.240;6.794;2023-06-22T02:56:58;12.37;;;6.40;;
5569;SDS011;2808;51.240;6.794;2023-06-22T02:59:27;11.93;;;6.37;;
5569;SDS011;2808;51.240;6.794;2023-06-22T03:01:55;11.00;;;6.73;;
5569;SDS011;2808;51.240;6.794;2023-06-22T03:04:22;10.30;;;6.50;;
5569;SDS011;2808;51.240;6.794;2023-06-22T03:06:50;12.70;;;6.60;;
5569;SDS011;2808;51.240;6.794;2023-06-22T03:09:18;10.33;;;5.60;;
5569;SDS011;2808;51.240;6.794;2023-06-22T03:11:46;11.37;;;5.80;;
5569;SDS011;2808;51.240;6.794;2023-06-22T03:14:13;12.53;;;6.90;;
5569;SDS011;2808;51.240;6.794;2023-06-22T03:16:41;14.33;;;6.93;;
5569;SDS011;2808;51.240;6.794;2023-06-22T03:19:09;14.57;;;7.50;;
5569;SDS011;2808;51.240;6.794;2023-06-22T03:21:37;12.77;;;7.50;;
5569;SDS011;2808;51.240;6.794;2023-06-22T03:24:05;13.47;;;7.30;;
5569;SDS011;2808;51.240;6.794;2023-06-22T03:26:34;14.70;;;7.63;;
5569;SDS011;2808;51.240;6.794;2023-06-22T03:29:02;11.80;;;6.50;;
5569;SDS011;2808;51.240;6.794;2023-06-22T03:31:29;14.47;;;7.13;;
5569;SDS011;2808;51.240;6.794;2023-06-22T03:33:57;10.30;;;6.60;;
5569;SDS011;2808;51.240;6.794;2023-06-22T03:36:24;12.33;;;7.27;;
5569;SDS011;2808;51.240;6.794;2023-06-22T03:38:52;13.00;;;7.30;;
5569;SDS011;2808;51.240;6.794;2023-06-22T03:41:19;13.37;;;7.27;;
5569;SDS011;2808;51.240;6.794;2023-06-22T03:43:48;12.00;;;6.77;;
5569;SDS011;2808;51.240;6.794;2023-06-22T03:46:15;14.57;;;6.83;;
5569;SDS011;2808;51.240;6.794;2023-06-22T03:48:43;18.83;;;8.20;;
5569;SDS011;2808;51.240;6.794;2023-06-22T03:51:10;14.13;;;6.63;;
5569;SDS011;2808;51.240;6.794;2023-06-22T03:53:40;11.40;;;6.97;;
5569;SDS011;2808;51.240;6.794;2023-06-22T03:56:08;16.40;;;6.93;;
5569;SDS011;2808;51.240;6.794;2023-06-22T03:58:36;11.40;;;7.07;;
5569;SDS011;2808;51.240;6.794;2023-06-22T04:01:09;17.40;;;7.57;;
5569;SDS011;2808;51.240;6.794;2023-06-22T04:03:37;13.83;;;7.23;;
5569;SDS011;2808;51.240;6.794;2023-06-22T04:06:04;12.83;;;7.77;;
5569;SDS011;2808;51.240;6.794;2023-06-22T04:08:32;14.13;;;7.67;;
5569;SDS011;2808;51.240;6.794;2023-06-22T04:10:59;13.00;;;8.33;;
5569;SDS011;2808;51.240;6.794;2023-06-22T04:13:27;21.53;;;12.03;;
5569;SDS011;2808;51.240;6.794;2023-06-22T04:15:54;16.20;;;9.70;;
5569;SDS011;2808;51.240;6.794;2023-06-22T04:18:23;13.10;;;8.03;;
5569;SDS011;2808;51.240;6.794;2023-06-22T04:20:51;14.50;;;7.63;;
5569;SDS011;2808;51.240;6.794;2023-06-22T04:23:18;16.53;;;9.30;;
5569;SDS011;2808;51.240;6.794;2023-06-22T04:25:46;12.60;;;7.37;;
5569;SDS011;2808;51.240;6.794;2023-06-22T04:28:13;16.40;;;9.10;;
5569;SDS011;2808;51.240;6.794;2023-06-22T04:30:40;14.60;;;7.50;;
5569;SDS011;2808;51.240;6.794;2023-06-22T04:33:11;15.43;;;7.67;;
5569;SDS011;2808;51.240;6.794;2023-06-22T04:35:41;20.07;;;8.30;;
5569;SDS011;2808;51.240;6.794;2023-06-22T04:38:11;17.10;;;8.63;;
5569;SDS011;2808;51.240;6.794;2023-06-22T04:40:39;15.90;;;6.93;;
5569;SDS011;2808;51.240;6.794;2023-06-22T04:43:06;14.13;;;8.10;;
5569;SDS011;2808;51.240;6.794;2023-06-22T04:45:35;12.77;;;8.27;;
5569;SDS011;2808;51.240;6.794;2023-06-22T04:48:03;16.20;;;8.83;;
5569;SDS011;2808;51.240;6.794;2023-06-22T04:50:31;11.10;;;8.10;;
5569;SDS011;2808;51.240;6.794;2023-06-22T04:53:00;12.40;;;8.23;;
5569;SDS011;2808;51.240;6.794;2023-06-22T04:55:30;10.93;;;7.40;;
5569;SDS011;2808;51.240;6.794;2023-06-22T04:58:02;14.30;;;8.30;;
5569;SDS011;2808;51.240;6.794;2023-06-22T05:00:31;15.40;;;8.23;;
5569;SDS011;2808;51.240;6.794;2023-06-22T05:03:01;15.27;;;7.53;;
5569;SDS011;2808;51.240;6.794;2023-06-22T05:05:36;13.10;;;7.73;;
5569;SDS011;2808;51.240;6.794;2023-06-22T05:08:05;13.57;;;7.97;;
5569;SDS011;2808;51.240;6.794;2023-06-22T05:10:32;14.40;;;7.87;;
5569;SDS011;2808;51.240;6.794;2023-06-22T05:12:59;13.80;;;7.60;;
5569;SDS011;2808;51.240;6.794;2023-06-22T05:15:27;14.00;;;7.70;;
5569;SDS011;2808;51.240;6.794;2023-06-22T05:17:58;15.63;;;7.50;;
5569;SDS011;2808;51.240;6.794;2023-06-22T05:20:30;12.10;;;7.10;;
5569;SDS011;2808;51.240;6.794;2023-06-22T05:22:58;9.93;;;6.73;;
5569;SDS011;2808;51.240;6.794;2023-06-22T05:25:27;14.57;;;7.80;;
5569;SDS011;2808;51.240;6.794;2023-06-22T05:27:57;14.30;;;6.60;;
5569;SDS011;2808;51.240;6.794;2023-06-22T05:30:24;17.43;;;7.97;;
5569;SDS011;2808;51.240;6.794;2023-06-22T05:32:53;10.93;;;7.13;;
5569;SDS011;2808;51.240;6.794;2023-06-22T05:35:21;12.83;;;7.27;;
5569;SDS011;2808;51.240;6.794;2023-06-22T05:37:48;12.27;;;7.50;;
5569;SDS011;2808;51.240;6.794;2023-06-22T05:40:16;12.57;;;7.43;;
5569;SDS011;2808;51.240;6.794;2023-06-22T05:42:45;12.83;;;6.83;;
5569;SDS011;2808;51.240;6.794;2023-06-22T05:45:13;13.53;;;7.60;;
5569;SDS011;2808;51.240;6.794;2023-06-22T05:47:41;15.17;;;7.30;;
5569;SDS011;2808;51.240;6.794;2023-06-22T05:50:09;15.70;;;6.90;;
5569;SDS011;2808;51.240;6.794;2023-06-22T05:52:37;11.40;;;7.07;;
5569;SDS011;2808;51.240;6.794;2023-06-22T05:55:05;16.93;;;8.43;;
5569;SDS011;2808;51.240;6.794;2023-06-22T05:57:33;13.37;;;7.63;;
5569;SDS011;2808;51.240;6.794;2023-06-22T06:00:02;12.87;;;7.33;;
5569;SDS011;2808;51.240;6.794;2023-06-22T06:02:36;23.00;;;8.17;;
5569;SDS011;2808;51.240;6.794;2023-06-22T06:05:08;16.77;;;8.40;;
5569;SDS011;2808;51.240;6.794;2023-06-22T06:07:38;13.93;;;7.90;;
5569;SDS011;2808;51.240;6.794;2023-06-22T06:10:06;14.80;;;7.83;;
5569;SDS011;2808;51.240;6.794;2023-06-22T06:12:34;12.60;;;7.57;;
5569;SDS011;2808;51.240;6.794;2023-06-22T06:15:04;14.07;;;8.30;;
5569;SDS011;2808;51.240;6.794;2023-06-22T06:17:45;15.13;;;7.40;;
5569;SDS011;2808;51.240;6.794;2023-06-22T06:20:20;17.40;;;7.87;;
5569;SDS011;2808;51.240;6.794;2023-06-22T06:22:48;18.33;;;7.70;;
5569;SDS011;2808;51.240;6.794;2023-06-22T06:25:16;20.10;;;8.17;;
5569;SDS011;2808;51.240;6.794;2023-06-22T06:27:45;22.13;;;8.70;;
5569;SDS011;2808;51.240;6.794;2023-06-22T06:30:15;14.00;;;6.70;;
5569;SDS011;2808;51.240;6.794;2023-06-22T06:32:44;16.53;;;7.30;;
5569;SDS011;2808;51.240;6.794;2023-06-22T06:35:12;14.30;;;7.23;;
5569;SDS011;2808;51.240;6.794;2023-06-22T06:37:41;13.80;;;7.80;;
5569;SDS011;2808;51.240;6.794;2023-06-22T06:40:10;13.90;;;8.30;;
5569;SDS011;2808;51.240;6.794;2023-06-22T06:42:39;13.70;;;7.80;;
5569;SDS011;2808;51.240;6.794;2023-06-22T06:45:09;16.73;;;7.90;;
5569;SDS011;2808;51.240;6.794;2023-06-22T06:47:39;18.30;;;7.47;;
5569;SDS011;2808;51.240;6.794;2023-06-22T06:50:07;14.57;;;7.67;;
5569;SDS011;2808;51.240;6.794;2023-06-22T06:52:36;16.10;;;7.80;;
5569;SDS011;2808;51.240;6.794;2023-06-22T06:55:04;12.87;;;7.90;;
5569;SDS011;2808;51.240;6.794;2023-06-22T06:57:34;12.07;;;7.53;;
5569;SDS011;2808;51.240;6.794;2023-06-22T07:00:04;13.17;;;8.40;;
5569;SDS011;2808;51.240;6.794;2023-06-22T07:02:37;17.33;;;8.40;;
5569;SDS011;2808;51.240;6.794;2023-06-22T07:05:06;15.20;;;7.57;;
5569;SDS011;2808;51.240;6.794;2023-06-22T07:07:34;15.67;;;8.67;;
5569;SDS011;2808;51.240;6.794;2023-06-22T07:10:02;17.63;;;9.10;;
5569;SDS011;2808;51.240;6.794;2023-06-22T07:12:31;22.17;;;9.10;;
5569;SDS011;2808;51.240;6.794;2023-06-22T07:15:03;17.23;;;9.30;;
5569;SDS011;2808;51.240;6.794;2023-06-22T07:17:33;15.10;;;9.07;;
5569;SDS011;2808;51.240;6.794;2023-06-22T07:20:03;14.10;;;9.20;;
5569;SDS011;2808;51.240;6.794;2023-06-22T07:22:35;15.03;;;9.70;;
5569;SDS011;2808;51.240;6.794;2023-06-22T07:25:03;16.57;;;9.33;;
5569;SDS011;2808;51.240;6.794;2023-06-22T07:27:44;12.33;;;8.53;;
5569;SDS011;2808;51.240;6.794;2023-06-22T07:30:13;19.87;;;9.40;;
5569;SDS011;2808;51.240;6.794;2023-06-22T07:32:41;16.23;;;9.43;;
5569;SDS011;2808;51.240;6.794;2023-06-22T07:35:09;15.07;;;9.83;;
5569;SDS011;2808;51.240;6.794;2023-06-22T07:37:37;15.40;;;10.30;;
5569;SDS011;2808;51.240;6.794;2023-06-22T07:40:06;15.00;;;9.90;;
5569;SDS011;2808;51.240;6.794;2023-06-22T07:42:34;16.80;;;9.40;;
5569;SDS011;2808;51.240;6.794;2023-06-22T07:45:03;13.00;;;9.10;;
5569;SDS011;2808;51.240;6.794;2023-06-22T07:47:33;19.50;;;10.50;;
5569;SDS011;2808;51.240;6.794;2023-06-22T07:50:07;16.43;;;9.80;;
5569;SDS011;2808;51.240;6.794;2023-06-22T07:52:38;15.20;;;10.13;;
5569;SDS011;2808;51.240;6.794;2023-06-22T07:55:06;15.13;;;9.80;;
5569;SDS011;2808;51.240;6.794;2023-06-22T07:57:34;17.17;;;10.67;;
5569;SDS011;2808;51.240;6.794;2023-06-22T08:00:02;20.63;;;11.40;;
5569;SDS011;2808;51.240;6.794;2023-06-22T08:02:37;17.43;;;9.80;;
5569;SDS011;2808;51.240;6.794;2023-06-22T08:05:05;14.93;;;10.17;;
5569;SDS011;2808;51.240;6.794;2023-06-22T08:07:34;15.17;;;10.33;;
5569;SDS011;2808;51.240;6.794;2023-06-22T08:10:03;17.43;;;9.87;;
5569;SDS011;2808;51.240;6.794;2023-06-22T08:12:31;17.13;;;9.00;;
5569;SDS011;2808;51.240;6.794;2023-06-22T08:14:58;16.03;;;9.53;;
5569;SDS011;2808;51.240;6.794;2023-06-22T08:17:26;18.33;;;10.00;;
5569;SDS011;2808;51.240;6.794;2023-06-22T08:19:53;15.20;;;8.37;;
5569;SDS011;2808;51.240;6.794;2023-06-22T08:22:21;12.47;;;7.97;;
5569;SDS011;2808;51.240;6.794;2023-06-22T08:24:50;19.70;;;8.17;;
5569;SDS011;2808;51.240;6.794;2023-06-22T08:27:20;15.47;;;8.10;;
5569;SDS011;2808;51.240;6.794;2023-06-22T08:29:49;13.30;;;7.50;;
5569;SDS011;2808;51.240;6.794;2023-06-22T08:32:21;14.43;;;7.70;;
5569;SDS011;2808;51.240;6.794;2023-06-22T08:34:49;12.23;;;7.60;;
5569;SDS011;2808;51.240;6.794;2023-06-22T08:37:17;17.00;;;9.47;;
5569;SDS011;2808;51.240;6.794;2023-06-22T08:54:16;9.77;;;7.00;;
5569;SDS011;2808;51.240;6.794;2023-06-22T08:56:44;12.53;;;7.67;;
5569;SDS011;2808;51.240;6.794;2023-06-22T08:59:11;10.47;;;6.93;;
5569;SDS011;2808;51.240;6.794;2023-06-22T09:01:40;11.10;;;6.60;;
5569;SDS011;2808;51.240;6.794;2023-06-22T09:04:16;11.90;;;6.90;;
5569;SDS011;2808;51.240;6.794;2023-06-22T09:06:49;10.00;;;6.03;;
5569;SDS011;2808;51.240;6.794;2023-06-22T09:09:18;11.70;;;6.60;;
5569;SDS011;2808;51.240;6.794;2023-06-22T09:11:48;11.87;;;7.03;;
5569;SDS011;2808;51.240;6.794;2023-06-22T09:14:17;10.40;;;6.13;;
5569;SDS011;2808;51.240;6.794;2023-06-22T09:16:45;10.07;;;6.50;;
5569;SDS011;2808;51.240;6.794;2023-06-22T09:19:13;11.37;;;6.07;;
5569;SDS011;2808;51.240;6.794;2023-06-22T09:21:40;12.60;;;6.43;;
5569;SDS011;2808;51.240;6.794;2023-06-22T09:24:08;13.70;;;6.30;;
5569;SDS011;2808;51.240;6.794;2023-06-22T09:26:37;10.47;;;6.80;;
5569;SDS011;2808;51.240;6.794;2023-06-22T09:29:04;9.50;;;5.73;;
5569;SDS011;2808;51.240;6.794;2023-06-22T09:31:32;9.87;;;6.70;;
5569;SDS011;2808;51.240;6.794;2023-06-22T09:33:59;11.87;;;6.87;;
5569;SDS011;2808;51.240;6.794;2023-06-22T09:36:27;9.17;;;5.47;;
5569;SDS011;2808;51.240;6.794;2023-06-22T09:38:54;7.57;;;5.10;;
5569;SDS011;2808;51.240;6.794;2023-06-22T09:41:23;8.53;;;5.93;;
5569;SDS011;2808;51.240;6.794;2023-06-22T09:43:53;9.00;;;6.40;;
5569;SDS011;2808;51.240;6.794;2023-06-22T09:46:21;10.80;;;6.10;;
5569;SDS011;2808;51.240;6.794;2023-06-22T09:48:53;10.80;;;6.07;;
5569;SDS011;2808;51.240;6.794;2023-06-22T09:51:23;9.87;;;6.30;;
5569;SDS011;2808;51.240;6.794;2023-06-22T09:53:51;12.27;;;6.40;;
5569;SDS011;2808;51.240;6.794;2023-06-22T09:56:19;9.10;;;6.03;;
5569;SDS011;2808;51.240;6.794;2023-06-22T09:58:47;9.77;;;5.70;;
5569;SDS011;2808;51.240;6.794;2023-06-22T10:01:19;10.57;;;5.93;;
5569;SDS011;2808;51.240;6.794;2023-06-22T10:03:47;9.00;;;5.90;;
5569;SDS011;2808;51.240;6.794;2023-06-22T10:06:19;9.00;;;6.10;;
5569;SDS011;2808;51.240;6.794;2023-06-22T10:08:47;10.23;;;6.67;;
5569;SDS011;2808;51.240;6.794;2023-06-22T10:11:16;8.80;;;6.10;;
5569;SDS011;2808;51.240;6.794;2023-06-22T10:13:43;8.77;;;6.10;;
5569;SDS011;2808;51.240;6.794;2023-06-22T10:16:11;10.00;;;6.20;;
5569;SDS011;2808;51.240;6.794;2023-06-22T10:18:40;10.53;;;6.80;;
5569;SDS011;2808;51.240;6.794;2023-06-22T10:21:07;13.87;;;7.00;;
5569;SDS011;2808;51.240;6.794;2023-06-22T10:23:34;12.87;;;6.80;;
5569;SDS011;2808;51.240;6.794;2023-06-22T10:26:02;14.03;;;6.77;;
5569;SDS011;2808;51.240;6.794;2023-06-22T10:28:29;11.20;;;7.20;;
5569;SDS011;2808;51.240;6.794;2023-06-22T10:30:56;10.47;;;7.33;;
5569;SDS011;2808;51.240;6.794;2023-06-22T10:33:24;11.17;;;7.20;;
5569;SDS011;2808;51.240;6.794;2023-06-22T10:38:51;12.47;;;7.60;;
5569;SDS011;2808;51.240;6.794;2023-06-22T10:41:20;10.87;;;7.50;;
5569;SDS011;2808;51.240;6.794;2023-06-22T10:43:48;12.17;;;7.90;;
5569;SDS011;2808;51.240;6.794;2023-06-22T10:46:18;18.70;;;7.87;;
5569;SDS011;2808;51.240;6.794;2023-06-22T10:48:46;13.30;;;9.23;;
5569;SDS011;2808;51.240;6.794;2023-06-22T10:51:13;15.43;;;8.87;;
5569;SDS011;2808;51.240;6.794;2023-06-22T10:53:42;15.53;;;9.73;;
5569;SDS011;2808;51.240;6.794;2023-06-22T10:56:16;17.10;;;9.10;;
5569;SDS011;2808;51.240;6.794;2023-06-22T10:58:44;19.93;;;10.50;;
5569;SDS011;2808;51.240;6.794;2023-06-22T11:01:12;16.63;;;9.63;;
5569;SDS011;2808;51.240;6.794;2023-06-22T11:03:48;19.70;;;10.77;;
5569;SDS011;2808;51.240;6.794;2023-06-22T11:09:43;18.97;;;12.50;;
5569;SDS011;2808;51.240;6.794;2023-06-22T11:12:21;25.93;;;14.07;;
5569;SDS011;2808;51.240;6.794;2023-06-22T11:18:47;22.77;;;13.83;;
5569;SDS011;2808;51.240;6.794;2023-06-22T11:21:56;23.93;;;15.30;;
5569;SDS011;2808;51.240;6.794;2023-06-22T11:24:30;26.30;;;16.80;;
5569;SDS011;2808;51.240;6.794;2023-06-22T11:26:59;22.53;;;14.60;;
5569;SDS011;2808;51.240;6.794;2023-06-22T11:29:26;27.03;;;17.23;;
5569;SDS011;2808;51.240;6.794;2023-06-22T11:31:54;22.63;;;16.00;;
5569;SDS011;2808;51.240;6.794;2023-06-22T11:34:22;26.53;;;15.40;;
5569;SDS011;2808;51.240;6.794;2023-06-22T11:36:49;26.87;;;17.10;;
5569;SDS011;2808;51.240;6.794;2023-06-22T11:39:17;30.43;;;18.53;;
5569;SDS011;2808;51.240;6.794;2023-06-22T11:41:45;25.93;;;17.50;;
5569;SDS011;2808;51.240;6.794;2023-06-22T11:44:13;28.43;;;17.27;;
5569;SDS011;2808;51.240;6.794;2023-06-22T11:46:41;26.73;;;18.20;;
5569;SDS011;2808;51.240;6.794;2023-06-22T11:49:08;28.20;;;18.67;;
5569;SDS011;2808;51.240;6.794;2023-06-22T11:51:36;38.60;;;19.10;;
5569;SDS011;2808;51.240;6.794;2023-06-22T11:54:03;26.83;;;18.07;;
5569;SDS011;2808;51.240;6.794;2023-06-22T11:56:32;25.00;;;18.13;;
5569;SDS011;2808;51.240;6.794;2023-06-22T11:59:02;25.77;;;17.50;;
5569;SDS011;2808;51.240;6.794;2023-06-22T12:01:31;32.70;;;18.20;;
5569;SDS011;2808;51.240;6.794;2023-06-22T12:03:59;25.30;;;19.40;;
5569;SDS011;2808;51.240;6.794;2023-06-22T12:06:30;29.40;;;19.10;;
5569;SDS011;2808;51.240;6.794;2023-06-22T12:08:58;32.90;;;20.23;;
5569;SDS011;2808;51.240;6.794;2023-06-22T12:11:25;28.23;;;20.63;;
5569;SDS011;2808;51.240;6.794;2023-06-22T12:13:53;28.73;;;20.10;;
5569;SDS011;2808;51.240;6.794;2023-06-22T12:16:20;28.07;;;19.53;;
5569;SDS011;2808;51.240;6.794;2023-06-22T12:19:01;27.93;;;19.50;;
5569;SDS011;2808;51.240;6.794;2023-06-22T12:21:31;29.03;;;18.67;;
5569;SDS011;2808;51.240;6.794;2023-06-22T12:23:59;27.73;;;19.20;;
5569;SDS011;2808;51.240;6.794;2023-06-22T12:26:29;28.23;;;20.80;;
5569;SDS011;2808;51.240;6.794;2023-06-22T12:28:56;33.80;;;21.13;;
5569;SDS011;2808;51.240;6.794;2023-06-22T12:31:24;30.70;;;21.30;;
5569;SDS011;2808;51.240;6.794;2023-06-22T12:33:55;34.00;;;22.30;;
5569;SDS011;2808;51.240;6.794;2023-06-22T12:36:23;38.83;;;22.67;;
5569;SDS011;2808;51.240;6.794;2023-06-22T12:38:50;38.80;;;23.53;;
5569;SDS011;2808;51.240;6.794;2023-06-22T12:44:23;33.60;;;22.97;;
5569;SDS011;2808;51.240;6.794;2023-06-22T12:45:08;36.50;;;23.03;;
5569;SDS011;2808;51.240;6.794;2023-06-22T12:47:36;35.93;;;21.63;;
5569;SDS011;2808;51.240;6.794;2023-06-22T12:50:05;31.80;;;21.60;;
5569;SDS011;2808;51.240;6.794;2023-06-22T12:52:36;36.40;;;23.10;;
5569;SDS011;2808;51.240;6.794;2023-06-22T12:55:06;32.33;;;21.53;;
5569;SDS011;2808;51.240;6.794;2023-06-22T12:57:34;34.80;;;24.13;;
5569;SDS011;2808;51.240;6.794;2023-06-22T13:00:08;38.87;;;23.90;;
5569;SDS011;2808;51.240;6.794;2023-06-22T13:02:39;32.57;;;23.03;;
5569;SDS011;2808;51.240;6.794;2023-06-22T13:05:11;31.83;;;23.10;;
5569;SDS011;2808;51.240;6.794;2023-06-22T13:07:40;30.60;;;22.13;;
5569;SDS011;2808;51.240;6.794;2023-06-22T13:10:36;31.03;;;22.70;;
5569;SDS011;2808;51.240;6.794;2023-06-22T13:17:09;31.50;;;23.20;;
5569;SDS011;2808;51.240;6.794;2023-06-22T13:19:37;35.83;;;24.13;;
5569;SDS011;2808;51.240;6.794;2023-06-22T13:22:25;33.30;;;23.80;;
5569;SDS011;2808;51.240;6.794;2023-06-22T13:28:03;32.17;;;24.27;;
5569;SDS011;2808;51.240;6.794;2023-06-22T13:30:31;33.50;;;23.80;;
5569;SDS011;2808;51.240;6.794;2023-06-22T13:32:59;29.50;;;23.23;;
5569;SDS011;2808;51.240;6.794;2023-06-22T13:35:26;32.90;;;23.93;;
5569;SDS011;2808;51.240;6.794;2023-06-22T13:38:04;40.23;;;24.30;;
5569;SDS011;2808;51.240;6.794;2023-06-22T13:40:32;37.63;;;23.20;;
5569;SDS011;2808;51.240;6.794;2023-06-22T13:43:04;32.70;;;24.20;;
5569;SDS011;2808;51.240;6.794;2023-06-22T13:45:49;34.53;;;21.77;;
5569;SDS011;2808;51.240;6.794;2023-06-22T13:48:17;31.07;;;22.17;;
5569;SDS011;2808;51.240;6.794;2023-06-22T13:54:10;31.53;;;22.80;;
5569;SDS011;2808;51.240;6.794;2023-06-22T13:57:05;32.07;;;21.57;;
5569;SDS011;2808;51.240;6.794;2023-06-22T13:59:33;34.73;;;22.50;;
5569;SDS011;2808;51.240;6.794;2023-06-22T14:02:02;29.70;;;20.73;;
5569;SDS011;2808;51.240;6.794;2023-06-22T14:04:35;30.60;;;20.97;;
5569;SDS011;2808;51.240;6.794;2023-06-22T14:07:04;30.30;;;19.93;;
5569;SDS011;2808;51.240;6.794;2023-06-22T14:09:52;28.80;;;20.90;;
5569;SDS011;2808;51.240;6.794;2023-06-22T14:12:20;36.33;;;21.70;;
5569;SDS011;2808;51.240;6.794;2023-06-22T14:14:47;32.53;;;20.73;;
5569;SDS011;2808;51.240;6.794;2023-06-22T14:17:18;36.27;;;20.40;;
5569;SDS011;2808;51.240;6.794;2023-06-22T14:19:55;27.90;;;20.87;;
5569;SDS011;2808;51.240;6.794;2023-06-22T14:22:25;30.90;;;21.97;;
5569;SDS011;2808;51.240;6.794;2023-06-22T14:25:08;30.07;;;21.03;;
5569;SDS011;2808;51.240;6.794;2023-06-22T14:27:36;26.43;;;19.13;;
5569;SDS011;2808;51.240;6.794;2023-06-22T14:30:04;29.30;;;19.53;;
5569;SDS011;2808;51.240;6.794;2023-06-22T14:32:35;26.43;;;18.80;;
5569;SDS011;2808;51.240;6.794;2023-06-22T14:35:06;28.37;;;19.20;;
5569;SDS011;2808;51.240;6.794;2023-06-22T14:37:33;31.20;;;19.40;;
5569;SDS011;2808;51.240;6.794;2023-06-22T14:40:01;30.57;;;20.20;;
5569;SDS011;2808;51.240;6.794;2023-06-22T14:42:30;31.60;;;19.17;;
5569;SDS011;2808;51.240;6.794;2023-06-22T14:44:57;32.90;;;22.00;;
5569;SDS011;2808;51.240;6.794;2023-06-22T14:47:25;28.50;;;19.07;;
5569;SDS011;2808;51.240;6.794;2023-06-22T14:49:56;27.07;;;19.67;;
5569;SDS011;2808;51.240;6.794;2023-06-22T14:52:57;28.50;;;19.40;;
5569;SDS011;2808;51.240;6.794;2023-06-22T15:02:16;27.97;;;20.40;;
5569;SDS011;2808;51.240;6.794;2023-06-22T15:04:44;31.00;;;19.00;;
5569;SDS011;2808;51.240;6.794;2023-06-22T15:07:11;27.90;;;18.67;;
5569;SDS011;2808;51.240;6.794;2023-06-22T15:09:39;29.90;;;19.50;;
5569;SDS011;2808;51.240;6.794;2023-06-22T15:12:07;22.73;;;16.00;;
5569;SDS011;2808;51.240;6.794;2023-06-22T15:14:51;23.33;;;16.90;;
5569;SDS011;2808;51.240;6.794;2023-06-22T15:17:20;22.23;;;15.90;;
5569;SDS011;2808;51.240;6.794;2023-06-22T16:20:53;27.20;;;18.83;;
5569;SDS011;2808;51.240;6.794;2023-06-22T16:23:24;25.37;;;19.00;;
5569;SDS011;2808;51.240;6.794;2023-06-22T16:25:52;25.50;;;18.90;;
5569;SDS011;2808;51.240;6.794;2023-06-22T16:28:19;24.87;;;17.97;;
5569;SDS011;2808;51.240;6.794;2023-06-22T16:30:56;25.13;;;19.43;;
5569;SDS011;2808;51.240;6.794;2023-06-22T16:33:30;27.27;;;19.63;;
5569;SDS011;2808;51.240;6.794;2023-06-22T16:36:00;26.73;;;20.10;;
5569;SDS011;2808;51.240;6.794;2023-06-22T16:38:29;28.07;;;19.80;;
5569;SDS011;2808;51.240;6.794;2023-06-22T16:40:59;28.93;;;21.20;;
5569;SDS011;2808;51.240;6.794;2023-06-22T16:43:29;29.83;;;20.07;;
5569;SDS011;2808;51.240;6.794;2023-06-22T16:46:07;28.77;;;20.60;;
5569;SDS011;2808;51.240;6.794;2023-06-22T16:48:49;29.83;;;21.70;;
5569;SDS011;2808;51.240;6.794;2023-06-22T16:51:17;31.67;;;23.03;;
5569;SDS011;2808;51.240;6.794;2023-06-22T16:53:45;37.90;;;23.27;;
5569;SDS011;2808;51.240;6.794;2023-06-22T16:56:18;35.80;;;23.87;;
5569;SDS011;2808;51.240;6.794;2023-06-22T16:58:51;34.00;;;22.90;;
5569;SDS011;2808;51.240;6.794;2023-06-22T17:01:23;34.67;;;23.20;;